DTCCM DTTX-DAAV
Flight info
| Callsign | DTCCM |
|---|---|
| Flight time | N/A |
| Altitude | 36000 |
| Route | AMINA1B AMINA DCT ROGBA DCT JIL |
| Aircraft | E35L/M-SDFGIRWXY/SB1 |
Departure
| Time | 2026-04-14 14:10 |
|---|---|
| Airport | Sfax Thyna International Airport (DTTX) |
Arrival
| Time | N/A |
|---|---|
| Airport | Jijel Ferhat Abbas Airport (DAAV) |
| Time | Latitude | Longitude | Altitude | Speed | Heading |
|---|---|---|---|---|---|
| 2026-04-14 13:55 | 34.72393 | 10.69223 | 65 ft | 0 kts | 332° |
| 2026-04-14 14:04 | 34.72390 | 10.69225 | 65 ft | 2 kts | 332° |
| 2026-04-14 14:04 | 34.72377 | 10.69234 | 66 ft | 2 kts | 321° |
| 2026-04-14 14:04 | 34.72364 | 10.69253 | 66 ft | 2 kts | 294° |
| 2026-04-14 14:05 | 34.72361 | 10.69264 | 66 ft | 2 kts | 294° |
| 2026-04-14 14:05 | 34.72355 | 10.69281 | 66 ft | 1 kts | 297° |
| 2026-04-14 14:05 | 34.72354 | 10.69282 | 66 ft | 0 kts | 297° |
| 2026-04-14 14:06 | 34.72355 | 10.69280 | 66 ft | 2 kts | 292° |
| 2026-04-14 14:07 | 34.72308 | 10.69228 | 64 ft | 19 kts | 211° |
| 2026-04-14 14:07 | 34.72170 | 10.69066 | 66 ft | 17 kts | 239° |
| 2026-04-14 14:07 | 34.72099 | 10.68926 | 66 ft | 20 kts | 239° |
| 2026-04-14 14:07 | 34.72047 | 10.68869 | 66 ft | 15 kts | 167° |
| 2026-04-14 14:08 | 34.71866 | 10.68995 | 63 ft | 29 kts | 149° |
| 2026-04-14 14:08 | 34.71742 | 10.69090 | 63 ft | 33 kts | 149° |
| 2026-04-14 14:08 | 34.71481 | 10.69286 | 60 ft | 33 kts | 147° |
| 2026-04-14 14:08 | 34.71334 | 10.69400 | 59 ft | 10 kts | 142° |
| 2026-04-14 14:09 | 34.71333 | 10.69418 | 59 ft | 3 kts | 6° |
| 2026-04-14 14:09 | 34.71345 | 10.69390 | 59 ft | 0 kts | 330° |
| 2026-04-14 14:09 | 34.71351 | 10.69386 | 59 ft | 2 kts | 330° |
| 2026-04-14 14:09 | 34.71505 | 10.69270 | 61 ft | 78 kts | 328° |
| 2026-04-14 14:10 | 34.72263 | 10.68698 | 250 ft | 160 kts | 325° |
| 2026-04-14 14:10 | 34.73170 | 10.67891 | 1203 ft | 175 kts | 307° |
| 2026-04-14 14:10 | 34.74000 | 10.66646 | 2001 ft | 211 kts | 304° |
| 2026-04-14 14:10 | 34.75354 | 10.64509 | 3033 ft | 266 kts | 304° |
| 2026-04-14 14:11 | 34.76437 | 10.62772 | 4751 ft | 262 kts | 304° |
| 2026-04-14 14:11 | 34.77128 | 10.61646 | 5833 ft | 259 kts | 304° |
| 2026-04-14 14:11 | 34.78191 | 10.59908 | 7290 ft | 261 kts | 304° |
| 2026-04-14 14:11 | 34.79615 | 10.57559 | 9045 ft | 267 kts | 306° |
| 2026-04-14 14:12 | 34.80709 | 10.55758 | 10250 ft | 272 kts | 306° |
| 2026-04-14 14:12 | 34.81461 | 10.54518 | 10807 ft | 285 kts | 307° |
| 2026-04-14 14:12 | 34.82707 | 10.52467 | 11323 ft | 313 kts | 307° |
| 2026-04-14 14:12 | 34.84041 | 10.50269 | 11846 ft | 337 kts | 307° |
| 2026-04-14 14:13 | 34.85972 | 10.47084 | 12547 ft | 363 kts | 307° |
| 2026-04-14 14:13 | 34.86960 | 10.45438 | 13254 ft | 364 kts | 306° |
| 2026-04-14 14:13 | 34.88727 | 10.41960 | 14485 ft | 369 kts | 303° |
| 2026-04-14 14:13 | 34.89744 | 10.39937 | 15175 ft | 371 kts | 303° |
| 2026-04-14 14:14 | 34.90327 | 10.38773 | 15563 ft | 373 kts | 303° |